City Of Joliet — WDC2653 — position and weather

sailwx.info

Track history (hours):
 
Tides and Currents Weather Stations Pressure Air Temp Water Temp Dewpoint Dewpoint Depression Visibility Wind Speed Wind Dir Waves Ship Positions

City Of Joliet

Owner: Kirby Inland Marine LP, Houston, TX. More information available from US FCC via Universal Licensing System and Coast Guard Vessel Documentation Center.

Last reported at 2017-Sep-21 12:50 UTC. Time now 2017-Sep-22 08:14 UTC.
Position N 31°57' W 091°11'.

Length 231 m; draft 2.7 m.

Type: . MMSI: 365947464.

Date/timePositionNaut miles runAvg speedWind from/ knotsBaromVisibWave heightAir tempDewpointWater temp
2017-Sep-21 12:50N 31°57' W 091°11'6 9.6
2017-Sep-21 12:10N 32°00' W 091°05'210.5
2017-Sep-21 12:00N 32°02' W 091°04'5 9.9
2017-Sep-21 11:29N 32°06' W 091°06'5 4.6
2017-Sep-21 10:28N 32°08' W 091°01'4 8.5
2017-Sep-21 10:00N 32°11' W 090°60'4 8.5
2017-Sep-21 09:30N 32°16' W 090°58'4 7.6
2017-Sep-21 09:00N 32°18' W 090°55'0 0.2
2017-Sep-21 08:30N 32°18' W 090°55'0 0.0
2017-Sep-21 08:00N 32°18' W 090°55'0 0.0
2017-Sep-21 07:30N 32°18' W 090°55'0 0.0
2017-Sep-21 07:00N 32°18' W 090°55'0 0.0
2017-Sep-21 06:30N 32°18' W 090°55'0 0.0
2017-Sep-21 06:00N 32°18' W 090°55'0 0.0
2017-Sep-21 05:30N 32°18' W 090°55'0 0.0
2017-Sep-21 05:00N 32°18' W 090°55'0 0.0
2017-Sep-21 04:30N 32°18' W 090°55'0 0.0
2017-Sep-21 04:00N 32°18' W 090°55'0 0.0
2017-Sep-21 03:30N 32°18' W 090°55'0 0.0
2017-Sep-21 03:00N 32°18' W 090°55'0 0.0
2017-Sep-21 02:30N 32°18' W 090°55'0 0.0
2017-Sep-21 02:00N 32°18' W 090°55'0 0.0
2017-Sep-21 01:30N 32°18' W 090°55'1 2.8
2017-Sep-21 01:00N 32°19' W 090°54'3 6.1
2017-Sep-21 00:30N 32°21' W 090°57'3 6.0
2017-Sep-21 00:00N 32°22' W 091°00'3 6.6
2017-Sep-20 23:30N 32°26' W 091°01'4 7.6
2017-Sep-20 23:00N 32°27' W 091°05'4 7.0
2017-Sep-20 22:30N 32°30' W 091°07'4 7.4
2017-Sep-20 21:56N 32°35' W 091°07'3 7.6
2017-Sep-20 21:30N 32°37' W 091°09'  
Track history (hours):
 
Tides and Currents Weather Stations Pressure Air Temp Water Temp Dewpoint Dewpoint Depression Visibility Wind Speed Wind Dir Waves Ship Positions

City Of Joliet

Owner: Kirby Inland Marine LP, Houston, TX. More information available from US FCC via Universal Licensing System and Coast Guard Vessel Documentation Center.

Last reported at 2017-Sep-21 12:50 UTC. Time now 2017-Sep-22 08:14 UTC.
Position N 31°57' W 091°11'.

Length 231 m; draft 2.7 m.

Type: . MMSI: 365947464.

Date/timePositionNaut miles runAvg speedWind from/ knotsBaromVisibWave heightAir tempDewpointWater temp
2017-Sep-21 12:50N 31°57' W 091°11'6 9.6
2017-Sep-21 12:10N 32°00' W 091°05'210.5
2017-Sep-21 12:00N 32°02' W 091°04'5 9.9
2017-Sep-21 11:29N 32°06' W 091°06'5 4.6
2017-Sep-21 10:28N 32°08' W 091°01'4 8.5
2017-Sep-21 10:00N 32°11' W 090°60'4 8.5
2017-Sep-21 09:30N 32°16' W 090°58'4 7.6
2017-Sep-21 09:00N 32°18' W 090°55'0 0.2
2017-Sep-21 08:30N 32°18' W 090°55'0 0.0
2017-Sep-21 08:00N 32°18' W 090°55'0 0.0
2017-Sep-21 07:30N 32°18' W 090°55'0 0.0
2017-Sep-21 07:00N 32°18' W 090°55'0 0.0
2017-Sep-21 06:30N 32°18' W 090°55'0 0.0
2017-Sep-21 06:00N 32°18' W 090°55'0 0.0
2017-Sep-21 05:30N 32°18' W 090°55'0 0.0
2017-Sep-21 05:00N 32°18' W 090°55'0 0.0
2017-Sep-21 04:30N 32°18' W 090°55'0 0.0
2017-Sep-21 04:00N 32°18' W 090°55'0 0.0
2017-Sep-21 03:30N 32°18' W 090°55'0 0.0
2017-Sep-21 03:00N 32°18' W 090°55'0 0.0
2017-Sep-21 02:30N 32°18' W 090°55'0 0.0
2017-Sep-21 02:00N 32°18' W 090°55'0 0.0
2017-Sep-21 01:30N 32°18' W 090°55'1 2.8
2017-Sep-21 01:00N 32°19' W 090°54'3 6.1
2017-Sep-21 00:30N 32°21' W 090°57'3 6.0
2017-Sep-21 00:00N 32°22' W 091°00'3 6.6
2017-Sep-20 23:30N 32°26' W 091°01'4 7.6
2017-Sep-20 23:00N 32°27' W 091°05'4 7.0
2017-Sep-20 22:30N 32°30' W 091°07'4 7.4
2017-Sep-20 21:56N 32°35' W 091°07'3 7.6
2017-Sep-20 21:30N 32°37' W 091°09'  

Dump ship's entire track history